Time;durP1;ratioP1;P1;durP2;ratioP2;P2;SDS_P1;SDS_P2;PMS_P1;PMS_P2;Temp;Humidity;BMP_temperature;BMP_pressure;BME280_temperature;BME280_humidity;BME280_pressure;Samples;Min_cycle;Max_cycle;Signal;HPM_P1;HPM_P2
2022/08/27 00:02:07;;;;;;;;;;;21.30;99.90;;;;;;5011592;28;19921;-73
2022/08/27 00:04:33;;;;;;;;;;;21.20;99.90;;;;;;5012368;28;19933;-73
2022/08/27 00:06:59;;;;;;;;;;;21.20;99.90;;;;;;5012432;28;19914;-72
2022/08/27 00:09:26;;;;;;;;;;;21.20;99.90;;;;;;5012089;28;19909;-73
2022/08/27 00:11:52;;;;;;;;;;;21.20;99.90;;;;;;5012571;28;19922;-72
2022/08/27 00:14:18;;;;;;;;;;;21.20;99.90;;;;;;5011773;28;19914;-73
2022/08/27 00:16:44;;;;;;;;;;;21.20;99.90;;;;;;5012479;28;19910;-73
2022/08/27 00:19:10;;;;;;;;;;;21.10;99.90;;;;;;5011859;28;19917;-73
2022/08/27 00:21:36;;;;;;;;;;;21.10;99.90;;;;;;5012605;28;19913;-73
2022/08/27 00:24:03;;;;;;;;;;;21.20;99.90;;;;;;5012216;28;19920;-73
2022/08/27 00:26:29;;;;;;;;;;;21.20;99.90;;;;;;5012687;28;19914;-74
2022/08/27 00:28:55;;;;;;;;;;;21.20;99.90;;;;;;5012557;28;20426;-76
2022/08/27 00:31:21;;;;;;;;;;;21.20;99.90;;;;;;5011785;28;19921;-74
2022/08/27 00:33:46;;;;;;;;;;;21.10;99.90;;;;;;5012406;28;20017;-74
2022/08/27 00:36:13;;;;;;;;;;;21.20;99.90;;;;;;4994384;28;20362;-75
2022/08/27 00:38:40;;;;;;;;;;;21.10;99.90;;;;;;5012688;28;20377;-74
2022/08/27 00:41:07;;;;;;;;;;;21.10;99.90;;;;;;5011233;28;19914;-74
2022/08/27 00:43:47;;;;;;;;;;;21.00;99.90;;;;;;5014747;28;19913;-72
2022/08/27 00:46:17;;;;;;;;;;;21.00;99.90;;;;;;5023051;28;19920;-73
2022/08/27 00:48:43;;;;;;;;;;;20.90;99.90;;;;;;5028395;28;19920;-72
2022/08/27 00:51:09;;;;;;;;;;;20.90;99.90;;;;;;5027403;28;19940;-72
2022/08/27 00:53:36;;;;;;;;;;;20.90;99.90;;;;;;4997837;28;19918;-73
2022/08/27 00:56:10;;;;;;;;;;;20.80;99.90;;;;;;5015928;28;19913;-73
2022/08/27 00:58:40;;;;;;;;;;;20.80;99.90;;;;;;5015547;28;19920;-72
2022/08/27 01:01:08;;;;;;;;;;;20.90;99.90;;;;;;5015171;28;19913;-73
2022/08/27 01:03:34;;;;;;;;;;;21.00;99.90;;;;;;5015757;28;19925;-73
2022/08/27 01:06:01;;;;;;;;;;;21.00;99.90;;;;;;5015670;28;20111;-73
2022/08/27 01:08:29;;;;;;;;;;;20.90;99.90;;;;;;5014935;28;20351;-73
2022/08/27 01:10:57;;;;;;;;;;;21.00;99.90;;;;;;5015385;28;19918;-73
2022/08/27 01:13:24;;;;;;;;;;;21.00;99.90;;;;;;5014668;28;20363;-73
2022/08/27 01:15:51;;;;;;;;;;;20.90;99.90;;;;;;5015220;28;19913;-73
2022/08/27 01:18:18;;;;;;;;;;;20.90;99.90;;;;;;5014621;28;20255;-73
2022/08/27 01:21:03;;;;;;;;;;;20.80;99.90;;;;;;5014860;28;20389;-73
2022/08/27 01:23:47;;;;;;;;;;;20.70;99.90;;;;;;5014773;28;19913;-73
2022/08/27 01:26:13;;;;;;;;;;;20.70;99.90;;;;;;5014840;28;19920;-73
2022/08/27 01:28:40;;;;;;;;;;;20.70;99.90;;;;;;5015157;28;19913;-72
2022/08/27 01:31:07;;;;;;;;;;;20.70;99.90;;;;;;5015336;28;19925;-73
2022/08/27 01:33:33;;;;;;;;;;;20.70;99.90;;;;;;5015164;28;19914;-73
2022/08/27 01:35:59;;;;;;;;;;;20.70;99.90;;;;;;5015378;28;19925;-73
2022/08/27 01:38:26;;;;;;;;;;;20.70;99.90;;;;;;5014640;28;19921;-73
2022/08/27 01:40:52;;;;;;;;;;;20.60;99.90;;;;;;5014840;28;19921;-73
2022/08/27 01:43:18;;;;;;;;;;;20.50;99.90;;;;;;5014249;28;19920;-73
2022/08/27 01:45:49;;;;;;;;;;;20.60;99.90;;;;;;5015085;28;19913;-73
2022/08/27 01:48:17;;;;;;;;;;;20.50;99.90;;;;;;4996890;28;19920;-72
2022/08/27 01:50:43;;;;;;;;;;;20.50;99.90;;;;;;5014486;28;20374;-72
2022/08/27 01:53:13;;;;;;;;;;;20.60;99.90;;;;;;5014229;28;19924;-73
2022/08/27 01:55:39;;;;;;;;;;;20.50;99.90;;;;;;5013680;28;19921;-72
2022/08/27 01:58:05;;;;;;;;;;;20.50;99.90;;;;;;5014530;28;19914;-72
2022/08/27 02:00:33;;;;;;;;;;;20.50;99.90;;;;;;5014182;28;19918;-73
2022/08/27 02:02:59;;;;;;;;;;;20.50;99.90;;;;;;5014370;28;19928;-72
2022/08/27 02:05:26;;;;;;;;;;;20.50;99.90;;;;;;5014076;28;19917;-73
2022/08/27 02:07:53;;;;;;;;;;;20.50;99.90;;;;;;5014375;28;19913;-73
2022/08/27 02:10:21;;;;;;;;;;;20.50;99.90;;;;;;5013563;28;19924;-73
2022/08/27 02:12:48;;;;;;;;;;;20.50;99.90;;;;;;5014732;28;19917;-73
2022/08/27 02:15:14;;;;;;;;;;;20.40;99.90;;;;;;5012924;28;19913;-73
2022/08/27 02:17:40;;;;;;;;;;;20.40;99.90;;;;;;5014158;28;19921;-73
2022/08/27 02:20:08;;;;;;;;;;;20.30;99.90;;;;;;4996032;28;20366;-73
2022/08/27 02:22:34;;;;;;;;;;;20.30;99.90;;;;;;5013763;28;19909;-73
2022/08/27 02:25:00;;;;;;;;;;;20.30;99.90;;;;;;5014022;28;19921;-73
2022/08/27 02:27:26;;;;;;;;;;;20.20;99.90;;;;;;5013720;28;19913;-73
2022/08/27 02:29:54;;;;;;;;;;;20.20;99.90;;;;;;5013754;28;19913;-73
2022/08/27 02:32:21;;;;;;;;;;;20.20;99.90;;;;;;5013552;28;19924;-73
2022/08/27 02:34:47;;;;;;;;;;;20.20;99.90;;;;;;5014378;28;19913;-73
2022/08/27 02:37:13;;;;;;;;;;;20.20;99.90;;;;;;5013551;28;20343;-74
2022/08/27 02:39:39;;;;;;;;;;;20.20;99.90;;;;;;4996053;28;19956;-73
2022/08/27 02:42:05;;;;;;;;;;;20.10;99.90;;;;;;5013887;28;19914;-72
2022/08/27 02:44:31;;;;;;;;;;;20.10;99.90;;;;;;5013363;28;19921;-72
2022/08/27 02:46:57;;;;;;;;;;;20.00;99.90;;;;;;5013334;28;19914;-72
2022/08/27 02:49:23;;;;;;;;;;;20.00;99.90;;;;;;5012079;28;19914;-72
2022/08/27 02:51:53;;;;;;;;;;;19.90;99.90;;;;;;5013231;28;19960;-72
2022/08/27 02:54:19;;;;;;;;;;;19.90;99.90;;;;;;5012954;28;20371;-72
2022/08/27 02:56:45;;;;;;;;;;;19.90;99.90;;;;;;4995753;28;19963;-72
2022/08/27 02:59:10;;;;;;;;;;;19.80;99.90;;;;;;5013469;28;20378;-72
2022/08/27 03:01:37;;;;;;;;;;;19.80;99.90;;;;;;5011848;28;19913;-72
2022/08/27 03:04:03;;;;;;;;;;;19.80;99.90;;;;;;5013055;28;19926;-72
2022/08/27 03:06:30;;;;;;;;;;;19.80;99.90;;;;;;5012610;28;19913;-72
2022/08/27 03:08:56;;;;;;;;;;;19.80;99.90;;;;;;5013343;28;20408;-72
2022/08/27 03:11:22;;;;;;;;;;;19.80;99.90;;;;;;5012670;28;20100;-72
2022/08/27 03:13:49;;;;;;;;;;;19.80;99.90;;;;;;5013329;28;19917;-72
2022/08/27 03:16:15;;;;;;;;;;;19.80;99.90;;;;;;5012442;28;19920;-72
2022/08/27 03:18:41;;;;;;;;;;;19.80;99.90;;;;;;5013012;28;19913;-72
2022/08/27 03:21:07;;;;;;;;;;;19.80;99.90;;;;;;5012949;28;19960;-72
2022/08/27 03:23:34;;;;;;;;;;;19.70;99.90;;;;;;5012381;28;19936;-72
2022/08/27 03:26:02;;;;;;;;;;;19.70;99.90;;;;;;5013225;28;19921;-72
2022/08/27 03:28:29;;;;;;;;;;;19.60;99.90;;;;;;5012485;28;19918;-73
2022/08/27 03:31:00;;;;;;;;;;;19.70;99.90;;;;;;5013033;28;19917;-72
2022/08/27 03:33:27;;;;;;;;;;;19.70;99.90;;;;;;5012276;28;19918;-72
2022/08/27 03:35:53;;;;;;;;;;;19.70;99.90;;;;;;5012844;28;20334;-72
2022/08/27 03:38:19;;;;;;;;;;;19.70;99.90;;;;;;5012255;28;19913;-72
2022/08/27 03:40:46;;;;;;;;;;;19.70;99.90;;;;;;5012878;28;19913;-72
2022/08/27 03:43:12;;;;;;;;;;;19.80;99.90;;;;;;5013214;28;20262;-72
2022/08/27 03:45:41;;;;;;;;;;;19.80;99.90;;;;;;5012129;28;20504;-72
2022/08/27 03:48:07;;;;;;;;;;;19.80;99.90;;;;;;5013017;28;19914;-72
2022/08/27 03:50:33;;;;;;;;;;;19.90;99.90;;;;;;5012298;28;19965;-73
2022/08/27 03:53:00;;;;;;;;;;;19.90;99.90;;;;;;5012637;28;19914;-73
2022/08/27 03:55:26;;;;;;;;;;;19.90;99.90;;;;;;5012309;28;19921;-73
2022/08/27 03:57:52;;;;;;;;;;;19.90;99.90;;;;;;5012907;28;20282;-72
2022/08/27 04:00:18;;;;;;;;;;;19.80;99.90;;;;;;5012244;28;19913;-73
2022/08/27 04:02:44;;;;;;;;;;;19.80;99.90;;;;;;5012490;28;19964;-72
2022/08/27 04:05:11;;;;;;;;;;;19.90;99.90;;;;;;5013367;28;19917;-72
2022/08/27 04:07:38;;;;;;;;;;;19.80;99.90;;;;;;5012536;28;19913;-72
2022/08/27 04:10:05;;;;;;;;;;;19.90;99.90;;;;;;5012827;28;20358;-72
2022/08/27 04:12:31;;;;;;;;;;;19.90;99.90;;;;;;5012166;28;19921;-72
2022/08/27 04:14:57;;;;;;;;;;;19.90;99.90;;;;;;5012720;28;19917;-71
2022/08/27 04:17:23;;;;;;;;;;;19.90;99.90;;;;;;5012574;28;19936;-71
2022/08/27 04:19:52;;;;;;;;;;;19.90;99.90;;;;;;5016787;28;20355;-72
2022/08/27 04:22:19;;;;;;;;;;;19.90;99.90;;;;;;5015831;28;19921;-73
2022/08/27 04:24:45;;;;;;;;;;;20.00;99.90;;;;;;5016562;28;20386;-72
2022/08/27 04:27:13;;;;;;;;;;;20.00;99.90;;;;;;5016561;28;19918;-72
2022/08/27 04:29:39;;;;;;;;;;;20.00;99.90;;;;;;5015469;28;19920;-72
2022/08/27 04:32:05;;;;;;;;;;;20.10;99.90;;;;;;5016271;28;19921;-72
2022/08/27 04:34:32;;;;;;;;;;;20.10;99.90;;;;;;5015677;28;19929;-72
2022/08/27 04:36:58;;;;;;;;;;;20.10;99.90;;;;;;5016312;28;20243;-72
2022/08/27 04:39:25;;;;;;;;;;;20.00;99.90;;;;;;5015736;28;19913;-72
2022/08/27 04:41:52;;;;;;;;;;;20.00;99.90;;;;;;5016408;28;19953;-72
2022/08/27 04:44:18;;;;;;;;;;;20.00;99.90;;;;;;5015830;28;20389;-72
2022/08/27 04:46:46;;;;;;;;;;;19.90;99.90;;;;;;5015973;28;19914;-72
2022/08/27 04:49:13;;;;;;;;;;;20.00;99.90;;;;;;5015716;28;20282;-72
2022/08/27 04:51:39;;;;;;;;;;;20.00;99.90;;;;;;5014549;28;20368;-73
2022/08/27 04:54:06;;;;;;;;;;;20.00;99.90;;;;;;5015805;28;19918;-72
2022/08/27 04:56:32;;;;;;;;;;;20.00;99.90;;;;;;5015342;28;20267;-73
2022/08/27 04:58:59;;;;;;;;;;;20.00;99.90;;;;;;5015714;28;19921;-73
2022/08/27 05:01:27;;;;;;;;;;;20.00;99.90;;;;;;5014921;28;19913;-73
2022/08/27 05:03:53;;;;;;;;;;;20.00;99.90;;;;;;5015975;28;19925;-73
2022/08/27 05:06:20;;;;;;;;;;;20.00;99.90;;;;;;5015367;28;19913;-75
2022/08/27 05:08:47;;;;;;;;;;;20.10;99.90;;;;;;5015776;28;19937;-73
2022/08/27 05:11:14;;;;;;;;;;;20.10;99.90;;;;;;5015480;28;19917;-73
2022/08/27 05:13:41;;;;;;;;;;;20.10;99.90;;;;;;5014832;28;20274;-73
2022/08/27 05:16:08;;;;;;;;;;;20.10;99.90;;;;;;5015515;28;20278;-73
2022/08/27 05:18:35;;;;;;;;;;;20.10;99.90;;;;;;5014608;28;20358;-74
2022/08/27 05:21:01;;;;;;;;;;;20.10;99.90;;;;;;5015234;28;20278;-73
2022/08/27 05:23:27;;;;;;;;;;;20.10;99.90;;;;;;5014881;28;19917;-74
2022/08/27 05:25:53;;;;;;;;;;;20.00;99.90;;;;;;5014695;28;19917;-73
2022/08/27 05:28:20;;;;;;;;;;;20.00;99.90;;;;;;5015297;28;19913;-72
2022/08/27 05:30:48;;;;;;;;;;;20.00;99.90;;;;;;5013741;28;19913;-73
2022/08/27 05:33:16;;;;;;;;;;;20.00;99.90;;;;;;5014834;28;20377;-72
2022/08/27 05:35:44;;;;;;;;;;;20.00;99.90;;;;;;5014306;28;19924;-73
2022/08/27 05:38:10;;;;;;;;;;;20.00;99.90;;;;;;5015070;28;19916;-73
2022/08/27 05:40:37;;;;;;;;;;;20.00;99.90;;;;;;5014623;28;19914;-73
2022/08/27 05:43:04;;;;;;;;;;;20.00;99.90;;;;;;5015172;28;20288;-72
2022/08/27 05:45:30;;;;;;;;;;;20.00;99.90;;;;;;5014088;28;19917;-73
2022/08/27 05:47:57;;;;;;;;;;;20.00;99.90;;;;;;5014754;28;19921;-73
2022/08/27 05:50:26;;;;;;;;;;;20.00;99.90;;;;;;5014270;28;19920;-74
2022/08/27 05:52:52;;;;;;;;;;;20.00;99.90;;;;;;5014133;28;19921;-73
2022/08/27 05:55:18;;;;;;;;;;;20.00;99.90;;;;;;5014544;28;19920;-73
2022/08/27 05:57:44;;;;;;;;;;;19.90;99.90;;;;;;5014252;28;19914;-73
2022/08/27 06:02:55;;;;;;;;;;;20.00;99.90;;;;;;5014443;28;19944;-73
2022/08/27 06:05:21;;;;;;;;;;;20.00;99.90;;;;;;5014366;28;19922;-74
2022/08/27 06:07:47;;;;;;;;;;;20.00;99.90;;;;;;5012787;28;19967;-75
2022/08/27 06:10:13;;;;;;;;;;;20.00;99.90;;;;;;5019855;28;19909;-75
2022/08/27 06:12:39;;;;;;;;;;;20.00;99.90;;;;;;5013577;28;20282;-76
2022/08/27 06:15:05;;;;;;;;;;;20.00;99.90;;;;;;5014026;28;19913;-75
2022/08/27 06:17:32;;;;;;;;;;;20.00;99.90;;;;;;5013519;28;19933;-76
2022/08/27 06:19:58;;;;;;;;;;;20.10;99.90;;;;;;5013183;28;19920;-75
2022/08/27 06:22:24;;;;;;;;;;;20.00;99.90;;;;;;5014230;28;19920;-75
2022/08/27 06:24:50;;;;;;;;;;;20.10;99.90;;;;;;5014136;28;19910;-74
2022/08/27 06:27:17;;;;;;;;;;;20.10;99.90;;;;;;5014112;28;19914;-74
2022/08/27 06:29:44;;;;;;;;;;;20.20;99.90;;;;;;5013549;28;19913;-74
2022/08/27 06:32:11;;;;;;;;;;;20.20;99.90;;;;;;5014121;28;19918;-74
2022/08/27 06:34:37;;;;;;;;;;;20.20;99.90;;;;;;5013083;28;19917;-74
2022/08/27 06:37:03;;;;;;;;;;;20.20;99.90;;;;;;5014357;28;19914;-74
2022/08/27 06:39:30;;;;;;;;;;;20.30;99.90;;;;;;5012590;28;20282;-74
2022/08/27 06:41:56;;;;;;;;;;;20.30;99.90;;;;;;5012737;28;19924;-74
2022/08/27 06:44:23;;;;;;;;;;;20.30;99.90;;;;;;5013691;28;19921;-74
2022/08/27 06:46:50;;;;;;;;;;;20.30;99.90;;;;;;5012831;28;19913;-74
2022/08/27 06:49:16;;;;;;;;;;;20.30;99.90;;;;;;5013263;28;19913;-74
2022/08/27 06:51:44;;;;;;;;;;;20.30;99.90;;;;;;5012630;28;19940;-74
2022/08/27 06:54:11;;;;;;;;;;;20.40;99.90;;;;;;5013548;28;20347;-74
2022/08/27 06:56:37;;;;;;;;;;;20.30;99.90;;;;;;5018307;28;20271;-75
2022/08/27 06:59:06;;;;;;;;;;;20.30;99.90;;;;;;5029027;28;19975;-74
2022/08/27 07:01:33;;;;;;;;;;;20.30;99.90;;;;;;5031352;28;19916;-74
2022/08/27 07:04:01;;;;;;;;;;;20.40;99.90;;;;;;5015118;28;19949;-75
2022/08/27 07:06:28;;;;;;;;;;;20.30;99.90;;;;;;5000610;28;19925;-77
2022/08/27 07:08:55;;;;;;;;;;;20.40;99.90;;;;;;5020619;28;19921;-75
2022/08/27 07:11:21;;;;;;;;;;;20.50;99.90;;;;;;5012726;28;19921;-75
2022/08/27 07:13:48;;;;;;;;;;;20.50;99.90;;;;;;4995238;28;19922;-75
2022/08/27 07:16:16;;;;;;;;;;;20.70;99.90;;;;;;5013223;28;20282;-74
2022/08/27 07:18:42;;;;;;;;;;;20.80;99.90;;;;;;5012499;28;19914;-74
2022/08/27 07:21:10;;;;;;;;;;;20.70;99.90;;;;;;5012317;28;20427;-74
2022/08/27 07:23:36;;;;;;;;;;;20.60;99.90;;;;;;5012182;28;20378;-75
2022/08/27 07:26:09;;;;;;;;;;;20.70;99.90;;;;;;5013063;28;20374;-75
2022/08/27 07:28:36;;;;;;;;;;;20.80;99.90;;;;;;5011836;28;19914;-75
2022/08/27 07:31:04;;;;;;;;;;;20.80;99.90;;;;;;5012921;28;19924;-75
2022/08/27 07:33:30;;;;;;;;;;;20.80;99.90;;;;;;5012714;28;19918;-76
2022/08/27 07:35:56;;;;;;;;;;;20.90;99.90;;;;;;5012593;28;19917;-75
2022/08/27 07:38:22;;;;;;;;;;;20.90;99.90;;;;;;5012637;28;19961;-75
2022/08/27 07:40:48;;;;;;;;;;;21.00;99.90;;;;;;5012451;28;20266;-75
2022/08/27 07:46:00;;;;;;;;;;;21.00;99.90;;;;;;5012546;28;19913;-75
2022/08/27 07:48:26;;;;;;;;;;;21.00;99.90;;;;;;5012256;28;19913;-75
2022/08/27 07:50:53;;;;;;;;;;;21.10;99.90;;;;;;5011599;28;19918;-75
2022/08/27 07:53:19;;;;;;;;;;;21.10;99.90;;;;;;5011248;28;19921;-75
2022/08/27 07:55:45;;;;;;;;;;;21.10;99.90;;;;;;5011667;28;20370;-75
2022/08/27 07:58:12;;;;;;;;;;;21.10;99.90;;;;;;5012307;28;19914;-75
2022/08/27 08:00:42;;;;;;;;;;;21.10;99.90;;;;;;5011734;28;19920;-75
2022/08/27 08:03:08;;;;;;;;;;;21.10;99.90;;;;;;4991035;28;19921;-74
2022/08/27 08:05:34;;;;;;;;;;;21.10;99.90;;;;;;4992351;28;19918;-75
2022/08/27 08:08:00;;;;;;;;;;;21.10;99.90;;;;;;4992843;28;19914;-75
2022/08/27 08:10:26;;;;;;;;;;;21.10;99.90;;;;;;4992884;28;20339;-74
2022/08/27 08:12:52;;;;;;;;;;;21.20;99.90;;;;;;4990725;28;19933;-74
2022/08/27 08:15:18;;;;;;;;;;;21.30;99.90;;;;;;4992653;28;20024;-74
2022/08/27 08:17:44;;;;;;;;;;;21.30;99.90;;;;;;4992357;28;19914;-74
2022/08/27 08:20:11;;;;;;;;;;;21.30;99.90;;;;;;4992913;28;19914;-75
2022/08/27 08:22:37;;;;;;;;;;;21.30;99.90;;;;;;4992542;28;19978;-74
2022/08/27 08:25:04;;;;;;;;;;;21.20;99.90;;;;;;4992964;28;20390;-74
2022/08/27 08:27:31;;;;;;;;;;;21.10;99.90;;;;;;4992546;28;20275;-75
2022/08/27 08:29:58;;;;;;;;;;;20.90;99.90;;;;;;4992864;28;19914;-75
2022/08/27 08:32:24;;;;;;;;;;;21.00;99.90;;;;;;4992075;28;19921;-75
2022/08/27 08:34:50;;;;;;;;;;;21.10;99.90;;;;;;4992081;28;20367;-74
2022/08/27 08:37:16;;;;;;;;;;;21.10;99.90;;;;;;4992777;28;19920;-74
2022/08/27 08:39:42;;;;;;;;;;;21.00;99.90;;;;;;4992211;28;19917;-75
2022/08/27 08:42:21;;;;;;;;;;;21.10;99.90;;;;;;4992429;28;19957;-74
2022/08/27 08:44:48;;;;;;;;;;;21.10;99.90;;;;;;4991981;28;19914;-75
2022/08/27 08:47:18;;;;;;;;;;;21.20;99.90;;;;;;4992436;28;19914;-75
2022/08/27 08:49:44;;;;;;;;;;;21.30;99.90;;;;;;4992064;28;20366;-74
2022/08/27 08:52:43;;;;;;;;;;;21.40;99.90;;;;;;4991016;28;19921;-74
2022/08/27 08:55:14;;;;;;;;;;;21.50;99.90;;;;;;4970208;28;19924;-75
2022/08/27 08:57:46;;;;;;;;;;;21.60;99.90;;;;;;4991962;28;19913;-74
2022/08/27 09:00:12;;;;;;;;;;;21.40;99.90;;;;;;4993024;28;20094;-74
2022/08/27 09:02:39;;;;;;;;;;;21.30;99.90;;;;;;4995295;28;19925;-75
2022/08/27 09:05:07;;;;;;;;;;;21.40;99.90;;;;;;5015102;28;19925;-75
2022/08/27 09:07:44;;;;;;;;;;;21.50;99.90;;;;;;5015472;28;19926;-74
2022/08/27 09:10:16;;;;;;;;;;;21.70;99.90;;;;;;5015921;28;19914;-74
2022/08/27 09:12:42;;;;;;;;;;;21.70;99.90;;;;;;5014903;28;20378;-75
2022/08/27 09:15:13;;;;;;;;;;;21.70;99.90;;;;;;5015487;28;19918;-75
2022/08/27 09:17:40;;;;;;;;;;;21.60;99.90;;;;;;5014730;28;19913;-76
2022/08/27 09:20:07;;;;;;;;;;;21.70;99.90;;;;;;5015193;28;20356;-76
2022/08/27 09:22:52;;;;;;;;;;;21.80;99.90;;;;;;5015140;28;19917;-76
2022/08/27 09:25:21;;;;;;;;;;;22.10;99.90;;;;;;5015650;28;19914;-76
2022/08/27 09:27:49;;;;;;;;;;;22.10;99.90;;;;;;5014724;28;19920;-76
2022/08/27 09:30:19;;;;;;;;;;;22.10;99.90;;;;;;5014960;28;19920;-76
2022/08/27 09:32:54;;;;;;;;;;;22.00;99.90;;;;;;5014738;28;19940;-76
2022/08/27 09:35:20;;;;;;;;;;;22.20;99.90;;;;;;5015215;28;20309;-76
2022/08/27 09:37:47;;;;;;;;;;;22.20;99.90;;;;;;5014368;28;19914;-75
2022/08/27 09:40:15;;;;;;;;;;;22.40;99.90;;;;;;5015105;28;19914;-76
2022/08/27 09:42:46;;;;;;;;;;;22.50;99.90;;;;;;5014365;28;19921;-77
2022/08/27 09:45:14;;;;;;;;;;;22.60;99.90;;;;;;5015100;28;19917;-76
2022/08/27 09:47:48;;;;;;;;;;;22.40;99.90;;;;;;5014653;28;19924;-76
2022/08/27 09:50:15;;;;;;;;;;;22.30;99.90;;;;;;5015898;28;19913;-75
2022/08/27 09:52:47;;;;;;;;;;;22.40;99.90;;;;;;5014388;28;19966;-75
2022/08/27 09:55:25;;;;;;;;;;;22.60;99.90;;;;;;5015028;28;19917;-75
2022/08/27 09:57:51;;;;;;;;;;;22.60;99.90;;;;;;5014151;28;20278;-75
2022/08/27 10:00:17;;;;;;;;;;;22.60;99.90;;;;;;5014717;28;19920;-75
2022/08/27 10:02:50;;;;;;;;;;;22.60;99.90;;;;;;5013466;28;20385;-74
2022/08/27 10:05:21;;;;;;;;;;;22.60;99.90;;;;;;5014599;28;20286;-75
2022/08/27 10:07:52;;;;;;;;;;;22.50;99.90;;;;;;5013675;28;19914;-74
2022/08/27 10:10:37;;;;;;;;;;;22.60;99.90;;;;;;5014654;28;19913;-74
2022/08/27 10:13:05;;;;;;;;;;;22.70;99.90;;;;;;5014230;28;20378;-74
2022/08/27 10:15:35;;;;;;;;;;;22.80;99.90;;;;;;4995721;28;20295;-74
2022/08/27 10:18:01;;;;;;;;;;;23.00;99.90;;;;;;5013482;28;19914;-75
2022/08/27 10:20:46;;;;;;;;;;;23.20;99.90;;;;;;5014084;28;19940;-75
2022/08/27 10:23:15;;;;;;;;;;;23.10;99.80;;;;;;5014533;28;20290;-74
2022/08/27 10:25:45;;;;;;;;;;;23.30;99.40;;;;;;5013610;28;19913;-75
2022/08/27 10:28:18;;;;;;;;;;;23.50;99.00;;;;;;4996520;28;19913;-74
2022/08/27 10:31:02;;;;;;;;;;;23.80;97.80;;;;;;5013784;28;19913;-74
2022/08/27 10:33:38;;;;;;;;;;;23.70;98.30;;;;;;5014362;28;19918;-75
2022/08/27 10:36:03;;;;;;;;;;;24.00;96.90;;;;;;5013099;28;20035;-75
2022/08/27 10:38:29;;;;;;;;;;;24.10;96.70;;;;;;5013637;28;19914;-75
2022/08/27 10:41:14;;;;;;;;;;;24.00;96.70;;;;;;5013259;28;19910;-75
2022/08/27 10:43:58;;;;;;;;;;;24.20;98.10;;;;;;5013681;28;19921;-78
2022/08/27 10:46:46;;;;;;;;;;;24.50;95.40;;;;;;5013556;28;19921;-75
2022/08/27 10:49:19;;;;;;;;;;;24.10;95.90;;;;;;5013614;28;19917;-75
2022/08/27 10:52:08;;;;;;;;;;;23.90;96.50;;;;;;5012788;28;20283;-75
2022/08/27 10:54:39;;;;;;;;;;;24.10;96.80;;;;;;5005530;28;20278;-74
2022/08/27 10:57:15;;;;;;;;;;;24.60;95.70;;;;;;4995687;28;20277;-75
2022/08/27 10:59:54;;;;;;;;;;;25.00;95.10;;;;;;5012853;28;19914;-76
2022/08/27 11:02:20;;;;;;;;;;;24.80;93.00;;;;;;5013200;28;19914;-75
2022/08/27 11:04:48;;;;;;;;;;;24.60;94.20;;;;;;5012891;28;19956;-75
2022/08/27 11:07:22;;;;;;;;;;;24.70;94.10;;;;;;5013146;28;20374;-75
2022/08/27 11:09:51;;;;;;;;;;;24.60;93.80;;;;;;5012638;28;19924;-75
2022/08/27 11:12:20;;;;;;;;;;;24.60;94.20;;;;;;5013114;28;19924;-75
2022/08/27 11:14:59;;;;;;;;;;;25.00;93.60;;;;;;5012929;28;19917;-76
2022/08/27 11:17:35;;;;;;;;;;;25.40;91.70;;;;;;5013176;28;20285;-75
2022/08/27 11:20:27;;;;;;;;;;;24.80;92.60;;;;;;5012781;28;19913;-75
2022/08/27 11:22:55;;;;;;;;;;;24.50;93.60;;;;;;5009431;28;19921;-75
2022/08/27 11:25:21;;;;;;;;;;;24.60;93.30;;;;;;5013199;28;19913;-75
2022/08/27 11:27:52;;;;;;;;;;;25.10;92.40;;;;;;5012287;28;19909;-76
2022/08/27 11:30:34;;;;;;;;;;;24.70;92.40;;;;;;5013377;28;19913;-75
2022/08/27 11:33:06;;;;;;;;;;;24.70;92.40;;;;;;5012476;28;20358;-75
2022/08/27 11:35:39;;;;;;;;;;;24.80;92.40;;;;;;4994983;28;19925;-75
2022/08/27 11:38:17;;;;;;;;;;;24.90;93.00;;;;;;5012308;28;19914;-74
2022/08/27 11:40:54;;;;;;;;;;;24.80;92.20;;;;;;5012943;28;20366;-74
2022/08/27 11:43:22;;;;;;;;;;;24.90;92.10;;;;;;5013094;28;19913;-75
2022/08/27 11:46:02;;;;;;;;;;;25.10;91.90;;;;;;4994427;28;19921;-74
2022/08/27 11:48:30;;;;;;;;;;;25.10;92.20;;;;;;5013160;28;20389;-75
2022/08/27 11:51:04;;;;;;;;;;;25.10;92.10;;;;;;5012147;28;19977;-75
2022/08/27 11:53:38;;;;;;;;;;;25.30;90.80;;;;;;5012738;28;20290;-74
2022/08/27 11:56:14;;;;;;;;;;;25.20;90.90;;;;;;5012270;28;20602;-74
2022/08/27 11:58:41;;;;;;;;;;;25.10;90.90;;;;;;5012744;28;20334;-75
2022/08/27 12:01:27;;;;;;;;;;;24.90;91.00;;;;;;5011877;28;19910;-75
2022/08/27 12:04:11;;;;;;;;;;;24.70;91.90;;;;;;5012034;28;19929;-74
2022/08/27 12:06:42;;;;;;;;;;;24.60;91.40;;;;;;5012440;28;20259;-74
2022/08/27 12:09:14;;;;;;;;;;;24.50;92.10;;;;;;4994501;28;19914;-74
2022/08/27 12:11:47;;;;;;;;;;;24.60;93.70;;;;;;5012728;28;20274;-74
2022/08/27 12:14:32;;;;;;;;;;;24.80;91.80;;;;;;5012622;28;20020;-75
2022/08/27 12:17:02;;;;;;;;;;;24.60;92.00;;;;;;5011805;28;19921;-75
2022/08/27 12:19:28;;;;;;;;;;;24.60;92.50;;;;;;5012441;28;19920;-75
2022/08/27 12:22:15;;;;;;;;;;;24.80;91.60;;;;;;5011773;28;19913;-75
2022/08/27 12:24:48;;;;;;;;;;;24.90;92.20;;;;;;5012271;28;20308;-75
2022/08/27 12:27:17;;;;;;;;;;;25.10;90.80;;;;;;5012463;28;19914;-76
2022/08/27 12:30:09;;;;;;;;;;;24.80;90.50;;;;;;5012250;28;19917;-76
2022/08/27 12:32:35;;;;;;;;;;;24.50;90.80;;;;;;4988978;28;19950;-76
2022/08/27 12:35:09;;;;;;;;;;;24.70;90.90;;;;;;5012062;28;19921;-76
2022/08/27 12:37:38;;;;;;;;;;;25.00;90.50;;;;;;5012383;28;19913;-76
2022/08/27 12:40:14;;;;;;;;;;;25.20;88.70;;;;;;5014675;28;19917;-76
2022/08/27 12:42:40;;;;;;;;;;;24.90;88.80;;;;;;4998992;28;20275;-76
2022/08/27 12:45:06;;;;;;;;;;;24.90;90.10;;;;;;5015313;28;19916;-76
2022/08/27 12:47:39;;;;;;;;;;;24.90;88.70;;;;;;5015904;28;20297;-76
2022/08/27 12:50:05;;;;;;;;;;;25.10;87.60;;;;;;5015260;28;19913;-76
2022/08/27 12:52:40;;;;;;;;;;;24.70;89.40;;;;;;5015723;28;19924;-76
2022/08/27 12:55:16;;;;;;;;;;;24.90;88.70;;;;;;5014422;28;19925;-76
2022/08/27 12:58:02;;;;;;;;;;;25.00;88.40;;;;;;5016200;28;19913;-76
2022/08/27 13:00:34;;;;;;;;;;;24.90;88.70;;;;;;4984954;28;20377;-76
2022/08/27 13:03:30;;;;;;;;;;;24.90;90.30;;;;;;5015308;28;20235;-76
2022/08/27 13:05:59;;;;;;;;;;;25.00;90.60;;;;;;5002033;28;19917;-76
2022/08/27 13:08:27;;;;;;;;;;;25.10;89.90;;;;;;5015921;28;19913;-76
2022/08/27 13:10:53;;;;;;;;;;;24.90;90.40;;;;;;4996838;28;19917;-75
2022/08/27 13:13:21;;;;;;;;;;;24.90;90.60;;;;;;5015453;28;19921;-76
2022/08/27 13:15:54;;;;;;;;;;;24.60;91.30;;;;;;4998297;28;19917;-75
2022/08/27 13:18:20;;;;;;;;;;;24.60;91.10;;;;;;5015490;28;19914;-75
2022/08/27 13:20:47;;;;;;;;;;;24.50;91.60;;;;;;5015443;28;19913;-75
2022/08/27 13:23:15;;;;;;;;;;;24.50;92.20;;;;;;5015025;28;20381;-76
2022/08/27 13:25:51;;;;;;;;;;;24.40;92.60;;;;;;4999044;28;20305;-76
2022/08/27 13:28:19;;;;;;;;;;;24.40;93.00;;;;;;5015451;28;19913;-76
2022/08/27 13:30:46;;;;;;;;;;;24.60;93.20;;;;;;5014852;28;19920;-76
2022/08/27 13:33:15;;;;;;;;;;;24.60;92.70;;;;;;5014872;28;19918;-76
2022/08/27 13:35:42;;;;;;;;;;;24.80;91.90;;;;;;5015347;28;20309;-76
2022/08/27 13:38:09;;;;;;;;;;;24.90;91.90;;;;;;5014361;28;20279;-74
2022/08/27 13:40:36;;;;;;;;;;;24.90;91.30;;;;;;5015395;28;19920;-74
2022/08/27 13:43:10;;;;;;;;;;;24.70;91.70;;;;;;5014507;28;19944;-74
2022/08/27 13:45:37;;;;;;;;;;;24.70;91.90;;;;;;5015312;28;20270;-74
2022/08/27 13:48:03;;;;;;;;;;;24.30;92.70;;;;;;5014575;28;20262;-74
2022/08/27 13:50:31;;;;;;;;;;;24.20;92.90;;;;;;4996698;28;19910;-74
2022/08/27 13:55:50;;;;;;;;;;;24.40;92.90;;;;;;5014823;28;19925;-75
2022/08/27 13:58:22;;;;;;;;;;;24.30;92.90;;;;;;4996677;28;19914;-74
2022/08/27 14:00:48;;;;;;;;;;;24.40;92.80;;;;;;5014894;28;20389;-74
2022/08/27 14:03:28;;;;;;;;;;;24.40;92.10;;;;;;5014101;28;20371;-74
2022/08/27 14:05:55;;;;;;;;;;;24.40;92.30;;;;;;5013850;28;19924;-75
2022/08/27 14:08:22;;;;;;;;;;;24.50;91.80;;;;;;5014864;28;19928;-74
2022/08/27 14:11:04;;;;;;;;;;;24.40;92.50;;;;;;5014632;28;19913;-74
2022/08/27 14:13:38;;;;;;;;;;;24.40;92.50;;;;;;5014490;28;19917;-74
2022/08/27 14:16:12;;;;;;;;;;;24.60;91.80;;;;;;4995908;28;19917;-74
2022/08/27 14:18:50;;;;;;;;;;;24.60;91.60;;;;;;5014377;28;20268;-74
2022/08/27 14:21:16;;;;;;;;;;;24.60;91.20;;;;;;5013618;28;19921;-74
2022/08/27 14:23:42;;;;;;;;;;;24.40;91.60;;;;;;5014405;28;19914;-74
2022/08/27 14:26:08;;;;;;;;;;;24.50;91.50;;;;;;5013496;28;19956;-75
2022/08/27 14:28:34;;;;;;;;;;;24.60;91.90;;;;;;4996619;28;19913;-75
2022/08/27 14:31:00;;;;;;;;;;;24.80;91.40;;;;;;5013699;28;20256;-75
2022/08/27 14:33:26;;;;;;;;;;;24.80;90.90;;;;;;4996507;28;20294;-74
2022/08/27 14:35:52;;;;;;;;;;;24.80;90.70;;;;;;5013851;28;19933;-74